Time;durP1;ratioP1;P1;durP2;ratioP2;P2;SDS_P1;SDS_P2;PMS_P1;PMS_P2;Temp;Humidity;BMP_temperature;BMP_pressure;BME280_temperature;BME280_humidity;BME280_pressure;Samples;Min_cycle;Max_cycle;Signal;HPM_P1;HPM_P2
2023/07/18 00:01:39;;;;;;;4.40;2.92;;;;;;;14.86;nan;101214.81;4836052;29;20122;-79
2023/07/18 00:04:07;;;;;;;4.82;2.45;;;;;;;14.81;nan;101219.44;4803845;29;20053;-79
2023/07/18 00:06:34;;;;;;;3.40;1.90;;;;;;;14.74;nan;101220.50;4837185;29;20039;-80
2023/07/18 00:09:02;;;;;;;2.85;2.03;;;;;;;14.71;nan;101221.44;4816604;29;20478;-79
2023/07/18 00:11:29;;;;;;;3.28;2.30;;;;;;;14.55;nan;101225.50;4818137;29;20055;-81
2023/07/18 00:13:56;;;;;;;5.10;2.88;;;;;;;14.54;nan;101223.72;4808619;29;20043;-80
2023/07/18 00:16:23;;;;;;;4.82;2.53;;;;;;;14.56;nan;101225.44;4798311;29;20499;-82
2023/07/18 00:18:50;;;;;;;3.42;2.40;;;;;;;14.45;nan;101226.59;4818069;29;20049;-79
2023/07/18 00:21:17;;;;;;;2.75;1.98;;;;;;;14.39;nan;101232.09;4816501;29;20055;-82
2023/07/18 00:23:45;;;;;;;3.53;2.28;;;;;;;14.40;nan;101225.88;4799746;29;20047;-80
2023/07/18 00:26:12;;;;;;;2.78;2.10;;;;;;;14.31;nan;101229.66;4802790;29;20049;-83
2023/07/18 00:28:40;;;;;;;4.38;2.15;;;;;;;14.26;nan;101229.75;4786590;29;20050;-83
2023/07/18 00:31:06;;;;;;;3.13;2.25;;;;;;;14.29;nan;101236.75;4802476;29;20462;-82
2023/07/18 00:33:36;;;;;;;3.63;2.28;;;;;;;14.26;nan;101243.03;4795401;29;20051;-80
2023/07/18 00:36:03;;;;;;;4.07;2.20;;;;;;;14.21;nan;101238.75;4768648;29;20522;-82
2023/07/18 00:38:30;;;;;;;4.47;2.40;;;;;;;14.18;nan;101236.19;4802577;29;20046;-83
2023/07/18 00:40:57;;;;;;;3.88;2.33;;;;;;;14.16;nan;101232.72;4815119;29;20403;-82
2023/07/18 00:43:24;;;;;;;4.13;2.80;;;;;;;14.07;nan;101233.81;4801781;29;20507;-82
2023/07/18 00:45:51;;;;;;;3.97;2.50;;;;;;;14.09;nan;101224.88;4800900;29;20039;-80
2023/07/18 00:48:18;;;;;;;4.28;2.50;;;;;;;14.12;nan;101233.69;4807712;29;20050;-83
2023/07/18 00:50:45;;;;;;;6.40;2.45;;;;;;;14.04;nan;101229.47;4814109;29;20053;-80
2023/07/18 00:53:12;;;;;;;3.35;2.50;;;;;;;14.06;nan;101234.72;4833580;29;20039;-83
2023/07/18 00:55:40;;;;;;;4.65;2.85;;;;;;;13.95;nan;101229.66;4797301;29;20058;-80
2023/07/18 00:58:08;;;;;;;3.53;2.33;;;;;;;13.89;nan;101224.53;4823157;29;20069;-80
2023/07/18 01:00:35;;;;;;;3.10;2.38;;;;;;;13.91;nan;101229.81;4816072;29;20704;-81
2023/07/18 01:03:02;;;;;;;4.35;2.33;;;;;;;13.84;nan;101223.75;4801708;29;20046;-81
2023/07/18 01:05:29;;;;;;;3.28;2.50;;;;;;;13.85;nan;101220.19;4799756;29;20047;-83
2023/07/18 01:07:56;;;;;;;5.63;2.83;;;;;;;13.79;nan;101220.38;4816599;29;20050;-83
2023/07/18 01:10:25;;;;;;;5.10;3.00;;;;;;;13.76;nan;101231.03;4787892;29;20059;-81
2023/07/18 01:12:54;;;;;;;4.45;2.70;;;;;;;13.75;nan;101226.66;4792064;29;20054;-82
2023/07/18 01:15:22;;;;;;;5.20;2.72;;;;;;;13.66;nan;101227.75;4810780;29;20051;-80
2023/07/18 01:17:49;;;;;;;3.60;2.65;;;;;;;13.55;nan;101227.13;4815436;29;20429;-81
2023/07/18 01:20:21;;;;;;;5.40;2.60;;;;;;;13.53;nan;101232.47;4809973;29;20039;-83
2023/07/18 01:22:50;;;;;;;5.28;2.42;;;;;;;13.47;nan;101224.66;4802865;29;20077;-81
2023/07/18 01:25:17;;;;;;;4.40;2.95;;;;;;;13.45;nan;101217.63;4787291;29;20050;-83
2023/07/18 01:27:45;;;;;;;3.92;2.78;;;;;;;13.43;nan;101228.28;4809554;29;20043;-81
2023/07/18 01:30:13;;;;;;;5.95;2.70;;;;;;;13.37;nan;101216.94;4787230;29;20041;-83
2023/07/18 01:32:42;;;;;;;4.38;2.70;;;;;;;13.37;nan;101224.88;4792787;29;20050;-81
2023/07/18 01:35:09;;;;;;;4.30;2.15;;;;;;;13.33;nan;101231.19;4786821;29;20042;-81
2023/07/18 01:37:37;;;;;;;3.15;2.25;;;;;;;13.19;nan;101231.47;4786079;29;20047;-82
2023/07/18 01:40:06;;;;;;;3.60;2.67;;;;;;;13.04;nan;101230.03;4785652;29;20045;-82
2023/07/18 01:42:33;;;;;;;3.33;2.38;;;;;;;12.98;nan;101234.59;4809563;29;20048;-81
2023/07/18 01:45:02;;;;;;;3.85;2.80;;;;;;;12.92;nan;101235.56;4771751;29;20057;-82
2023/07/18 01:47:32;;;;;;;3.97;2.60;;;;;;;12.87;nan;101233.03;4770409;29;20102;-81
2023/07/18 01:49:59;;;;;;;3.78;2.78;;;;;;;12.83;nan;101241.06;4800962;29;20055;-81
2023/07/18 01:52:27;;;;;;;3.28;2.30;;;;;;;12.81;nan;101248.19;4793467;29;20056;-82
2023/07/18 01:54:59;;;;;;;3.63;2.65;;;;;;;12.76;nan;101244.75;4820838;29;20038;-81
2023/07/18 01:57:35;;;;;;;4.85;2.80;;;;;;;12.79;nan;101245.59;4783895;29;20046;-82
2023/07/18 02:00:03;;;;;;;4.40;2.42;;;;;;;12.72;nan;101248.38;4824285;29;20053;-83
2023/07/18 02:02:30;;;;;;;4.32;2.65;;;;;;;12.54;nan;101242.53;4814377;29;20804;-81
2023/07/18 02:04:58;;;;;;;3.65;2.55;;;;;;;12.45;nan;101255.09;4789960;29;20049;-80
2023/07/18 02:07:27;;;;;;;6.85;2.75;;;;;;;12.44;nan;101253.31;4814185;29;20114;-83
2023/07/18 02:09:54;;;;;;;3.90;2.65;;;;;;;12.50;nan;101254.09;4805551;29;20042;-81
2023/07/18 02:12:21;;;;;;;3.65;2.75;;;;;;;12.49;nan;101247.03;4826041;29;20046;-78
2023/07/18 02:14:48;;;;;;;3.47;2.63;;;;;;;12.38;nan;101249.03;4807269;29;20046;-82
2023/07/18 02:17:15;;;;;;;4.85;2.95;;;;;;;12.32;nan;101246.47;4801882;29;20043;-79
2023/07/18 02:19:41;;;;;;;4.47;2.65;;;;;;;12.29;nan;101251.84;4812886;29;20050;-82
2023/07/18 02:22:08;;;;;;;7.07;2.55;;;;;;;12.25;nan;101253.66;4826156;29;20695;-80
2023/07/18 02:24:36;;;;;;;5.47;2.85;;;;;;;12.23;nan;101254.59;4810966;29;20039;-82
2023/07/18 02:27:04;;;;;;;4.07;2.88;;;;;;;12.23;nan;101259.91;4779770;29;20483;-79
2023/07/18 02:29:31;;;;;;;3.78;2.60;;;;;;;12.21;nan;101259.06;4815342;29;20035;-80
2023/07/18 02:31:58;;;;;;;3.47;2.78;;;;;;;12.23;nan;101254.59;4831622;29;20039;-82
2023/07/18 02:34:27;;;;;;;5.35;3.30;;;;;;;12.19;nan;101261.75;4801044;29;20047;-80
2023/07/18 02:36:54;;;;;;;5.78;2.78;;;;;;;12.38;nan;101259.63;4833183;29;20042;-80
2023/07/18 02:39:21;;;;;;;4.85;3.10;;;;;;;12.21;nan;101261.72;4807597;29;20547;-80
2023/07/18 02:41:48;;;;;;;5.72;3.42;;;;;;;12.19;nan;101256.44;4827705;29;20039;-81
2023/07/18 02:44:15;;;;;;;5.93;3.58;;;;;;;12.17;nan;101270.59;4811121;29;20046;-81
2023/07/18 02:46:42;;;;;;;5.25;2.85;;;;;;;12.18;nan;101267.03;4831012;29;20042;-82
2023/07/18 02:49:09;;;;;;;6.68;3.40;;;;;;;12.17;nan;101275.88;4806180;29;20051;-79
2023/07/18 02:51:36;;;;;;;5.07;3.25;;;;;;;12.17;nan;101268.81;4815787;29;20538;-81
2023/07/18 02:54:03;;;;;;;16.13;4.72;;;;;;;12.21;nan;101267.88;4785011;29;20058;-80
2023/07/18 02:56:32;;;;;;;10.93;3.72;;;;;;;12.22;nan;101271.41;4838410;29;20043;-81
2023/07/18 02:58:59;;;;;;;20.38;4.22;;;;;;;12.21;nan;101267.88;4795672;29;20039;-83
2023/07/18 03:01:26;;;;;;;6.90;3.17;;;;;;;12.21;nan;101275.81;4809892;29;20192;-79
2023/07/18 03:03:54;;;;;;;5.40;3.35;;;;;;;12.22;nan;101272.28;4819766;29;20522;-81
2023/07/18 03:06:23;;;;;;;6.50;3.30;;;;;;;12.23;nan;101273.16;4775213;29;20663;-83
2023/07/18 03:08:50;;;;;;;6.32;3.42;;;;;;;12.24;nan;101273.13;4799348;29;20043;-83
2023/07/18 03:11:19;;;;;;;5.97;2.90;;;;;;;12.21;nan;101275.81;4801878;29;20043;-83
2023/07/18 03:13:46;;;;;;;6.47;3.53;;;;;;;12.21;nan;101270.53;4774872;29;20042;-83
2023/07/18 03:16:13;;;;;;;4.03;2.67;;;;;;;12.25;nan;101280.16;4810577;29;20076;-81
2023/07/18 03:18:41;;;;;;;4.47;3.00;;;;;;;12.25;nan;101285.44;4792660;29;20550;-81
2023/07/18 03:21:07;;;;;;;4.57;3.22;;;;;;;12.21;nan;101285.56;4805303;29;20635;-80
2023/07/18 03:23:34;;;;;;;4.50;3.05;;;;;;;12.20;nan;101282.03;4809600;29;20101;-79
2023/07/18 03:26:01;;;;;;;4.13;3.00;;;;;;;12.22;nan;101284.66;4808314;29;20678;-79
2023/07/18 03:28:28;;;;;;;6.55;3.72;;;;;;;12.30;nan;101291.56;4810701;29;20133;-80
2023/07/18 03:30:55;;;;;;;5.68;4.32;;;;;;;12.24;nan;101296.09;4826279;29;20094;-78
2023/07/18 03:33:22;;;;;;;8.73;4.13;;;;;;;12.29;nan;101287.16;4809887;29;20147;-80
2023/07/18 03:35:49;;;;;;;7.85;4.75;;;;;;;12.33;nan;101294.16;4812948;29;20098;-79
2023/07/18 03:38:16;;;;;;;5.18;3.75;;;;;;;12.36;nan;101285.28;4818368;29;20451;-80
2023/07/18 03:40:43;;;;;;;11.68;4.22;;;;;;;12.27;nan;101294.25;4819606;29;20102;-81
2023/07/18 03:43:10;;;;;;;10.00;4.32;;;;;;;12.29;nan;101292.47;4839977;29;20179;-79
2023/07/18 03:45:37;;;;;;;5.97;3.60;;;;;;;12.27;nan;101293.38;4822740;29;20054;-80
2023/07/18 03:48:04;;;;;;;4.55;3.50;;;;;;;12.32;nan;101299.47;4809659;29;20068;-79
2023/07/18 03:50:31;;;;;;;6.32;4.05;;;;;;;12.34;nan;101303.84;4831211;29;20035;-80
2023/07/18 03:52:58;;;;;;;5.88;3.50;;;;;;;12.37;nan;101293.22;4802917;29;20135;-79
2023/07/18 03:55:25;;;;;;;3.83;3.15;;;;;;;12.43;nan;101301.94;4840789;29;20466;-80
2023/07/18 03:57:52;;;;;;;4.25;3.25;;;;;;;12.43;nan;101300.16;4819528;29;20491;-80
2023/07/18 04:00:19;;;;;;;4.68;3.78;;;;;;;12.53;nan;101304.41;4819073;29;20047;-81
2023/07/18 04:02:47;;;;;;;6.50;3.67;;;;;;;12.51;nan;101303.53;4810541;29;20035;-80
2023/07/18 04:05:15;;;;;;;7.47;3.42;;;;;;;12.55;nan;101294.66;4817161;29;20411;-79
2023/07/18 04:07:43;;;;;;;7.57;4.32;;;;;;;12.76;nan;101293.34;4831627;29;20071;-80
2023/07/18 04:10:11;;;;;;;5.65;3.65;;;;;;;12.61;nan;101289.25;4801844;29;20042;-80
2023/07/18 04:12:39;;;;;;;5.03;3.47;;;;;;;12.67;nan;101290.88;4817749;29;20054;-79
2023/07/18 04:15:10;;;;;;;5.22;3.47;;;;;;;12.61;nan;101285.69;4807751;29;20114;-80
2023/07/18 04:17:41;;;;;;;7.55;3.70;;;;;;;12.65;nan;101292.69;4812238;29;20057;-80
2023/07/18 04:20:08;;;;;;;6.57;3.70;;;;;;;12.63;nan;101275.94;4811133;29;20417;-79
2023/07/18 04:22:35;;;;;;;6.20;3.83;;;;;;;12.74;nan;101279.25;4799644;29;20665;-79
2023/07/18 04:25:02;;;;;;;6.50;4.20;;;;;;;12.73;nan;101277.50;4816956;29;20050;-80
2023/07/18 04:27:29;;;;;;;7.13;3.83;;;;;;;12.72;nan;101281.06;4815643;29;20416;-79
2023/07/18 04:29:57;;;;;;;5.80;3.55;;;;;;;12.81;nan;101275.59;4822738;29;20046;-79
2023/07/18 04:32:24;;;;;;;6.75;3.30;;;;;;;12.87;nan;101277.25;4804783;29;20049;-79
2023/07/18 04:34:51;;;;;;;7.85;4.00;;;;;;;12.92;nan;101281.53;4803558;29;20050;-79
2023/07/18 04:37:19;;;;;;;6.38;4.38;;;;;;;13.07;nan;101276.84;4835661;29;20043;-80
2023/07/18 04:39:46;;;;;;;7.35;4.72;;;;;;;13.19;nan;101277.47;4818806;29;20053;-79
2023/07/18 04:42:13;;;;;;;5.65;3.92;;;;;;;13.15;nan;101281.06;4804164;29;20057;-79
2023/07/18 04:44:41;;;;;;;6.05;3.50;;;;;;;13.13;nan;101282.88;4799316;29;20043;-79
2023/07/18 04:47:08;;;;;;;6.75;4.47;;;;;;;13.20;nan;101281.00;4832700;29;20054;-81
2023/07/18 04:49:35;;;;;;;6.40;3.97;;;;;;;13.26;nan;101280.00;4804782;29;20050;-80
2023/07/18 04:52:03;;;;;;;4.72;3.85;;;;;;;13.29;nan;101283.47;4806830;29;20053;-79
2023/07/18 04:54:30;;;;;;;5.43;4.43;;;;;;;13.30;nan;101282.56;4806103;29;20039;-79
2023/07/18 04:56:57;;;;;;;5.38;4.20;;;;;;;13.30;nan;101293.19;4792098;29;20048;-81
2023/07/18 04:59:24;;;;;;;7.45;4.28;;;;;;;13.40;nan;101291.19;4813596;29;20714;-79
2023/07/18 05:01:54;;;;;;;5.03;4.53;;;;;;;13.52;nan;101289.13;4815356;29;20053;-79
2023/07/18 05:04:21;;;;;;;6.07;4.38;;;;;;;13.65;nan;101284.41;4825847;29;20059;-79
2023/07/18 05:06:48;;;;;;;9.18;5.22;;;;;;;13.86;nan;101291.00;4809995;29;20046;-80
2023/07/18 05:09:17;;;;;;;6.70;4.40;;;;;;;13.88;nan;101294.50;4801453;29;20042;-80
2023/07/18 05:11:45;;;;;;;6.32;4.65;;;;;;;13.88;nan;101286.53;4801412;29;20047;-80
2023/07/18 05:14:13;;;;;;;7.22;5.70;;;;;;;14.32;nan;101290.75;4839650;29;20039;-81
2023/07/18 05:16:40;;;;;;;4.47;3.30;;;;;;;14.60;nan;101290.03;4816829;29;20046;-80
2023/07/18 05:19:07;;;;;;;7.47;4.55;;;;;;;14.82;nan;101300.97;4806874;29;20511;-80
2023/07/18 05:21:34;;;;;;;6.03;4.95;;;;;;;14.95;nan;101291.72;4803221;29;20046;-81
2023/07/18 05:24:01;;;;;;;6.88;4.55;;;;;;;14.93;nan;101294.41;4837659;29;20047;-80
2023/07/18 05:26:28;;;;;;;8.23;5.20;;;;;;;14.90;nan;101305.16;4805222;29;20046;-79
2023/07/18 05:28:55;;;;;;;8.48;4.30;;;;;;;14.89;nan;101305.22;4796112;29;20038;-80
2023/07/18 05:31:22;;;;;;;5.70;4.13;;;;;;;14.91;nan;101306.03;4832329;29;20515;-79
2023/07/18 05:33:50;;;;;;;4.75;3.63;;;;;;;15.00;nan;101302.25;4797846;29;20229;-80
2023/07/18 05:36:17;;;;;;;5.55;3.65;;;;;;;15.48;nan;101298.13;4798426;29;20114;-80
2023/07/18 05:38:47;;;;;;;6.50;3.53;;;;;;;15.86;nan;101303.19;4802595;29;20057;-80
2023/07/18 05:41:14;;;;;;;5.05;4.00;;;;;;;15.93;nan;101304.75;4800303;29;20037;-81
2023/07/18 05:43:41;;;;;;;4.60;3.55;;;;;;;16.22;nan;101301.97;4829604;29;20045;-78
2023/07/18 05:46:10;;;;;;;6.93;3.75;;;;;;;16.85;nan;101307.84;4800906;29;20050;-79
2023/07/18 05:48:37;;;;;;;7.93;3.60;;;;;;;18.01;nan;101303.38;4817178;29;20039;-78
2023/07/18 05:51:04;;;;;;;8.43;3.20;;;;;;;19.78;nan;101308.88;4778091;29;20036;-80
2023/07/18 05:53:31;;;;;;;8.43;2.80;;;;;;;21.09;nan;101314.72;4800125;29;20049;-80
2023/07/18 05:55:58;;;;;;;5.40;2.40;;;;;;;22.48;nan;101313.09;4768856;29;20411;-81
2023/07/18 05:58:25;;;;;;;3.35;2.10;;;;;;;23.04;nan;101313.34;4785126;29;20042;-79
2023/07/18 06:00:52;;;;;;;4.20;2.78;;;;;;;23.70;nan;101312.72;4806935;29;20030;-80
2023/07/18 06:03:19;;;;;;;3.53;2.70;;;;;;;24.27;nan;101300.88;4789652;29;20495;-81
2023/07/18 06:05:52;;;;;;;4.53;2.67;;;;;;;24.38;nan;101309.13;4798286;29;20085;-80
2023/07/18 06:08:19;;;;;;;3.80;2.63;;;;;;;24.11;nan;101309.13;4802607;29;20675;-78
2023/07/18 06:10:47;;;;;;;3.88;2.50;;;;;;;24.37;nan;101304.69;4802743;29;20031;-80
2023/07/18 06:13:14;;;;;;;14.90;3.90;;;;;;;24.38;nan;101307.31;4790222;29;20069;-80
2023/07/18 06:15:41;;;;;;;3.20;2.30;;;;;;;24.01;nan;101308.03;4808021;29;20051;-80
2023/07/18 06:18:07;;;;;;;6.72;2.97;;;;;;;22.45;nan;101316.00;4804291;29;20046;-80
2023/07/18 06:20:34;;;;;;;5.95;3.15;;;;;;;21.86;nan;101317.63;4818505;29;20045;-81
2023/07/18 06:23:01;;;;;;;5.18;2.72;;;;;;;21.50;nan;101317.84;4809400;29;20451;-79
2023/07/18 06:25:28;;;;;;;3.13;2.60;;;;;;;21.47;nan;101315.34;4833133;29;20463;-79
2023/07/18 06:27:55;;;;;;;4.38;2.53;;;;;;;21.34;nan;101314.28;4825820;29;20423;-79
2023/07/18 06:30:22;;;;;;;3.75;2.50;;;;;;;21.24;nan;101319.25;4805427;29;20042;-80
2023/07/18 06:32:49;;;;;;;3.28;2.63;;;;;;;21.26;nan;101311.09;4827161;29;20550;-79
2023/07/18 06:35:16;;;;;;;3.28;2.70;;;;;;;21.37;nan;101318.63;4826151;29;20056;-79
2023/07/18 06:37:49;;;;;;;4.67;3.00;;;;;;;21.26;nan;101311.97;4809919;29;20050;-80
2023/07/18 06:40:17;;;;;;;5.05;3.10;;;;;;;21.13;nan;101304.69;4807361;29;20053;-79
2023/07/18 06:42:44;;;;;;;5.65;2.90;;;;;;;21.02;nan;101310.59;4805130;29;20046;-79
2023/07/18 06:45:12;;;;;;;4.97;2.95;;;;;;;21.02;nan;101306.13;4836054;29;20051;-80
2023/07/18 06:47:39;;;;;;;9.57;3.03;;;;;;;20.97;nan;101305.50;4805525;29;20544;-79
2023/07/18 06:50:06;;;;;;;5.80;2.85;;;;;;;21.16;nan;101309.88;4832470;29;20057;-80
2023/07/18 06:52:33;;;;;;;4.70;2.80;;;;;;;21.28;nan;101307.44;4836300;29;20102;-79
2023/07/18 06:55:03;;;;;;;5.47;2.75;;;;;;;21.43;nan;101303.00;4789371;29;20053;-79
2023/07/18 06:57:30;;;;;;;6.65;2.88;;;;;;;21.60;nan;101302.06;4800835;29;20047;-80
2023/07/18 06:59:57;;;;;;;5.75;2.88;;;;;;;21.64;nan;101303.66;4825907;29;20096;-80
2023/07/18 07:02:24;;;;;;;3.95;2.40;;;;;;;21.75;nan;101303.03;4806046;29;20551;-79
2023/07/18 07:04:52;;;;;;;4.80;2.95;;;;;;;21.86;nan;101300.59;4784014;29;20474;-80
2023/07/18 07:07:22;;;;;;;5.43;2.70;;;;;;;21.85;nan;101305.09;4791964;29;20046;-79
2023/07/18 07:09:48;;;;;;;4.60;2.80;;;;;;;21.95;nan;101299.22;4829758;29;20557;-79
2023/07/18 07:12:15;;;;;;;4.20;2.78;;;;;;;21.88;nan;101296.00;4803188;29;20047;-80
2023/07/18 07:14:56;;;;;;;9.88;2.85;;;;;;;21.96;nan;101296.44;4805356;29;20043;-80
2023/07/18 07:17:25;;;;;;;5.75;2.90;;;;;;;22.02;nan;101301.44;4807952;29;20507;-80
2023/07/18 07:19:53;;;;;;;6.35;2.38;;;;;;;;;;4803539;29;20043;-80
2023/07/18 07:22:19;;;;;;;6.22;3.00;;;;;;;21.75;nan;101294.97;4807662;29;20074;-79
2023/07/18 07:24:47;;;;;;;5.82;2.78;;;;;;;21.86;nan;101303.28;4790809;29;20048;-81
2023/07/18 07:27:14;;;;;;;4.72;2.28;;;;;;;21.85;nan;101302.41;4820986;29;20058;-79
2023/07/18 07:29:44;;;;;;;5.25;2.72;;;;;;;21.59;nan;101293.13;4804276;29;20035;-79
2023/07/18 07:32:11;;;;;;;4.68;2.50;;;;;;;21.68;nan;101299.81;4803901;29;20049;-79
2023/07/18 07:34:38;;;;;;;6.03;2.47;;;;;;;21.69;nan;101300.69;4817347;29;20418;-80
2023/07/18 07:37:10;;;;;;;6.22;2.58;;;;;;;22.07;nan;101293.13;4819649;29;20057;-80
2023/07/18 07:39:37;;;;;;;3.55;2.35;;;;;;;22.16;nan;101301.53;4806496;29;20526;-78
2023/07/18 07:42:04;;;;;;;4.47;2.53;;;;;;;22.01;nan;101304.22;4812357;29;20642;-80
2023/07/18 07:44:32;;;;;;;4.72;2.45;;;;;;;22.33;nan;101292.47;4832191;29;20050;-80
2023/07/18 07:46:59;;;;;;;3.65;2.47;;;;;;;22.63;nan;101294.31;4821011;29;20045;-80
2023/07/18 07:49:26;;;;;;;5.18;2.47;;;;;;;22.45;nan;101297.16;4806656;29;20053;-79
2023/07/18 07:51:53;;;;;;;6.38;2.47;;;;;;;22.52;nan;101292.22;4804255;29;21049;-78
2023/07/18 07:54:20;;;;;;;4.53;2.25;;;;;;;22.48;nan;101288.88;4809616;29;20050;-78
2023/07/18 07:56:48;;;;;;;4.90;2.22;;;;;;;22.70;nan;101288.44;4788856;29;20053;-79
2023/07/18 07:59:15;;;;;;;2.80;2.15;;;;;;;22.76;nan;101288.06;4803785;29;20059;-78
2023/07/18 08:01:45;;;;;;;8.30;2.50;;;;;;;22.95;nan;101277.06;4832604;29;20040;-79
2023/07/18 08:04:12;;;;;;;5.93;2.58;;;;;;;22.95;nan;101286.94;4828384;29;20086;-79
2023/07/18 08:06:39;;;;;;;4.53;3.00;;;;;;;23.00;nan;101291.09;4831359;29;20042;-79
2023/07/18 08:09:06;;;;;;;4.13;2.47;;;;;;;23.00;nan;101288.41;4792619;29;20125;-79
2023/07/18 08:11:34;;;;;;;10.88;3.70;;;;;;;23.22;nan;101289.75;4819683;29;20435;-78
2023/07/18 08:14:01;;;;;;;5.68;2.25;;;;;;;23.39;nan;101288.69;4800190;29;20049;-78
2023/07/18 08:16:31;;;;;;;4.22;2.65;;;;;;;23.14;nan;101292.94;4807766;29;20046;-80
2023/07/18 08:18:58;;;;;;;2.75;1.75;;;;;;;23.45;nan;101285.56;4818974;29;20054;-81
2023/07/18 08:21:25;;;;;;;3.63;2.08;;;;;;;23.75;nan;101282.75;4815633;29;20110;-79
2023/07/18 08:24:04;;;;;;;4.25;2.10;;;;;;;23.72;nan;101289.22;4794815;29;20054;-79
2023/07/18 08:26:31;;;;;;;4.47;2.47;;;;;;;23.58;nan;101286.53;4833115;29;20567;-79
2023/07/18 08:28:59;;;;;;;100.82;14.13;;;;;;;23.91;nan;101280.78;4815480;29;20118;-79
2023/07/18 08:31:27;;;;;;;6.75;2.28;;;;;;;24.07;nan;101273.38;4813622;29;20122;-79
2023/07/18 08:33:56;;;;;;;4.07;2.20;;;;;;;24.22;nan;101276.03;4803917;29;20038;-79
2023/07/18 08:36:23;;;;;;;4.72;2.10;;;;;;;24.53;nan;101272.09;4830159;29;20482;-79
2023/07/18 08:38:51;;;;;;;3.28;2.10;;;;;;;24.41;nan;101276.53;4832424;29;20138;-78
2023/07/18 08:41:21;;;;;;;4.57;2.25;;;;;;;24.53;nan;101264.00;4804633;29;20405;-79
2023/07/18 08:43:49;;;;;;;2.92;1.90;;;;;;;24.36;nan;101270.56;4829508;29;20216;-80
2023/07/18 08:46:16;;;;;;;5.95;2.47;;;;;;;24.38;nan;101268.63;4810684;29;20039;-80
2023/07/18 08:48:48;;;;;;;4.65;2.17;;;;;;;24.84;nan;101254.63;4814221;29;20047;-80
2023/07/18 08:51:15;;;;;;;3.90;2.63;;;;;;;25.29;nan;101263.13;4805308;29;20054;-81
2023/07/18 08:53:43;;;;;;;4.32;2.22;;;;;;;25.11;nan;101254.53;4815149;29;20039;-80
2023/07/18 08:56:10;;;;;;;5.20;2.30;;;;;;;25.21;nan;101245.63;4831873;29;20221;-80
2023/07/18 08:58:37;;;;;;;3.55;2.60;;;;;;;25.43;nan;101244.06;4832111;29;20047;-79
2023/07/18 09:01:05;;;;;;;3.78;2.28;;;;;;;25.47;nan;101241.00;4809375;29;20048;-80
2023/07/18 09:03:33;;;;;;;4.03;2.17;;;;;;;25.42;nan;101226.97;4813402;29;20406;-79
2023/07/18 09:06:03;;;;;;;3.55;2.08;;;;;;;25.12;nan;101240.88;4818706;29;20047;-78
2023/07/18 09:08:42;;;;;;;2.85;1.50;;;;;;;25.20;nan;101235.78;4818109;29;20053;-79
2023/07/18 09:11:12;;;;;;;2.83;2.20;;;;;;;25.52;nan;101237.97;4817681;29;20518;-79
2023/07/18 09:13:40;;;;;;;4.93;2.20;;;;;;;25.22;nan;101224.84;4829614;29;20099;-80
2023/07/18 09:16:26;;;;;;;2.95;2.38;;;;;;;24.71;nan;101235.69;4804816;29;20546;-80
2023/07/18 09:18:54;;;;;;;4.38;2.00;;;;;;;24.27;nan;101239.63;4818498;29;20573;-78
2023/07/18 09:21:23;;;;;;;6.35;2.72;;;;;;;24.54;nan;101234.19;4805930;29;20031;-79
2023/07/18 09:23:50;;;;;;;3.53;1.80;;;;;;;24.83;nan;101233.97;4809154;29;20051;-80
2023/07/18 09:26:19;;;;;;;7.22;2.97;;;;;;;24.82;nan;101232.25;4788551;29;20062;-79
2023/07/18 09:28:46;;;;;;;4.10;2.58;;;;;;;24.77;nan;101235.28;4806152;29;20117;-79
2023/07/18 09:31:21;;;;;;;3.83;1.90;;;;;;;24.49;nan;101230.94;4819884;29;20051;-79
2023/07/18 09:33:51;;;;;;;3.42;1.70;;;;;;;24.38;nan;101226.31;4802254;29;20529;-80
2023/07/18 09:36:22;;;;;;;4.80;2.05;;;;;;;24.04;nan;101235.78;4791616;29;20049;-79
2023/07/18 09:38:50;;;;;;;3.17;1.73;;;;;;;23.97;nan;101228.25;4788226;29;20038;-78
2023/07/18 09:41:18;;;;;;;2.83;1.50;;;;;;;24.04;nan;101225.00;4805146;29;20039;-79
2023/07/18 09:43:47;;;;;;;3.33;2.10;;;;;;;23.79;nan;101224.91;4809261;29;20062;-79
2023/07/18 09:46:16;;;;;;;2.42;1.77;;;;;;;23.61;nan;101226.13;4796147;29;20049;-79
2023/07/18 09:48:46;;;;;;;4.13;2.10;;;;;;;23.55;nan;101228.25;4809628;29;20043;-80
2023/07/18 09:51:19;;;;;;;9.43;2.33;;;;;;;23.27;nan;101226.47;4787497;29;20035;-79
2023/07/18 09:53:48;;;;;;;2.90;1.83;;;;;;;23.52;nan;101223.03;4824650;29;20051;-78
2023/07/18 09:56:16;;;;;;;4.53;2.08;;;;;;;23.65;nan;101224.97;4788340;29;20122;-79
2023/07/18 09:58:44;;;;;;;4.15;1.77;;;;;;;23.74;nan;101211.75;4809427;29;20055;-78
2023/07/18 10:01:13;;;;;;;4.63;2.92;;;;;;;23.91;nan;101218.72;4811519;29;20031;-79
2023/07/18 10:03:40;;;;;;;3.20;2.00;;;;;;;23.79;nan;101209.59;4806211;29;20045;-78
2023/07/18 10:06:12;;;;;;;3.13;1.85;;;;;;;23.38;nan;101212.31;4824259;29;20057;-79
2023/07/18 10:08:43;;;;;;;3.65;1.98;;;;;;;23.46;nan;101209.13;4801644;29;20046;-79
2023/07/18 10:11:11;;;;;;;2.78;1.73;;;;;;;23.95;nan;101204.03;4830921;29;20513;-79
2023/07/18 10:14:02;;;;;;;3.28;2.13;;;;;;;24.28;nan;101199.97;4792176;29;20053;-80
2023/07/18 10:16:29;;;;;;;3.13;2.10;;;;;;;24.71;nan;101208.66;4818634;29;20047;-81
2023/07/18 10:18:56;;;;;;;5.25;3.22;;;;;;;25.08;nan;101192.56;4788011;29;20558;-79
2023/07/18 10:21:32;;;;;;;3.33;2.03;;;;;;;25.07;nan;101193.53;4833963;29;20155;-79
2023/07/18 10:24:21;;;;;;;2.88;2.03;;;;;;;25.52;nan;101197.41;4822990;29;20067;-79
2023/07/18 10:26:50;;;;;;;5.32;4.57;;;;;;;25.51;nan;101193.81;4803009;29;20073;-80
2023/07/18 10:29:18;;;;;;;4.00;2.80;;;;;;;25.27;nan;101188.41;4826870;29;20763;-78
2023/07/18 10:31:45;;;;;;;3.80;2.00;;;;;;;25.37;nan;101185.88;4800954;29;20686;-80
2023/07/18 10:34:14;;;;;;;3.72;2.05;;;;;;;25.45;nan;101188.88;4831835;29;20057;-79
2023/07/18 10:36:55;;;;;;;3.53;1.92;;;;;;;25.43;nan;101187.25;4830221;29;21115;-80
2023/07/18 10:39:38;;;;;;;4.47;1.90;;;;;;;25.67;nan;101190.84;4811176;29;20118;-80
2023/07/18 10:42:30;;;;;;;2.72;1.70;;;;;;;25.68;nan;101183.59;4822975;29;20494;-80
2023/07/18 10:44:59;;;;;;;2.53;1.73;;;;;;;25.73;nan;101173.31;4799209;29;20111;-79
2023/07/18 10:47:27;;;;;;;3.42;1.60;;;;;;;26.17;nan;101167.19;4808335;29;20049;-79
2023/07/18 10:49:54;;;;;;;3.13;1.90;;;;;;;26.08;nan;101170.63;4801999;29;20053;-79
2023/07/18 10:52:21;;;;;;;3.65;1.58;;;;;;;25.99;nan;101172.19;4814782;29;20047;-79
2023/07/18 10:54:55;;;;;;;3.30;1.80;;;;;;;26.22;nan;101162.25;4803864;29;20053;-79
2023/07/18 10:57:22;;;;;;;;;;;;;;;26.25;nan;101155.75;4816012;29;20545;-79
2023/07/18 10:59:50;;;;;;;2.47;1.73;;;;;;;26.21;nan;101149.69;4826548;29;19931;-79
2023/07/18 11:02:21;;;;;;;3.30;2.15;;;;;;;26.74;nan;101141.91;4813374;29;20150;-77
2023/07/18 11:04:51;;;;;;;3.38;1.75;;;;;;;27.01;nan;101132.50;4791103;29;20054;-77
2023/07/18 11:07:18;;;;;;;4.80;1.80;;;;;;;26.75;nan;101132.78;4815114;29;20043;-78
2023/07/18 11:09:45;;;;;;;2.42;1.48;;;;;;;26.37;nan;101135.81;4803358;29;20051;-78
2023/07/18 11:12:17;;;;;;;3.17;1.65;;;;;;;26.20;nan;101123.59;4833250;29;20545;-78
2023/07/18 11:14:45;;;;;;;59.95;9.45;;;;;;;26.41;nan;101118.38;4815391;29;20046;-78
2023/07/18 11:17:13;;;;;;;3.00;1.50;;;;;;;26.36;nan;101120.53;4808431;29;20039;-80
2023/07/18 11:19:40;;;;;;;5.13;1.70;;;;;;;26.86;nan;101113.78;4800606;29;20069;-79
2023/07/18 11:22:08;;;;;;;2.28;1.65;;;;;;;26.56;nan;101103.56;4809821;29;20550;-80
2023/07/18 11:24:35;;;;;;;2.72;1.48;;;;;;;26.89;nan;101107.25;4829725;29;20043;-80
2023/07/18 11:27:17;;;;;;;2.17;1.33;;;;;;;26.73;nan;101112.19;4794611;29;20057;-79
2023/07/18 11:30:04;;;;;;;38.60;5.10;;;;;;;25.49;nan;101102.94;4812694;29;20527;-78
2023/07/18 11:32:39;;;;;;;3.42;1.42;;;;;;;25.32;nan;101101.53;4816932;29;20047;-80
2023/07/18 11:35:12;;;;;;;2.45;1.58;;;;;;;25.38;nan;101103.75;4817717;29;20057;-79
2023/07/18 11:37:42;;;;;;;5.63;1.80;;;;;;;25.71;nan;101099.47;4793720;29;20047;-81
2023/07/18 11:40:10;;;;;;;3.22;1.33;;;;;;;26.04;nan;101085.16;4834133;29;20053;-80
2023/07/18 11:42:44;;;;;;;2.42;1.33;;;;;;;25.94;nan;101097.72;4831921;29;20043;-80
2023/07/18 11:45:12;;;;;;;3.40;1.98;;;;;;;25.89;nan;101092.63;4793134;29;20049;-79
2023/07/18 11:47:44;;;;;;;2.53;1.45;;;;;;;25.73;nan;101090.28;4819701;29;20653;-79